Woodson, Arkansas
Current Conditions -  °F | °C
As of 2:53 PM on Friday 19 Dec 2014 (Local Time) from KLIT Reporting Station
Overcast Overcast  
Wind Chill: 41°   Ceiling: 1200
Heat Index: 44°   Visibility: 7mi
Dew Point: 38°   Wind: 6mph
Humidity: 79%   Direction: 70°ENE
Pressure: 30.21"   Gusts: NA
Location:  34.53°N, 92.21°W
Report Text: KLIT 192053Z 07005KT 7SM OVC012 07/03 A3021 RMK AO2 RAE19 SLP232 CIG RGD P0000 60001 T00670033 56016
Loading
Personal Weather Stations






























Interactive Weather Map New forecast layout! Learn more

10-Day Weather Forecast

Advertisements
Track Severe Weather on mobile